Time;durP1;ratioP1;P1;durP2;ratioP2;P2;SDS_P1;SDS_P2;PMS_P1;PMS_P2;Temp;Humidity;BMP_temperature;BMP_pressure;BME280_temperature;BME280_humidity;BME280_pressure;Samples;Min_cycle;Max_cycle;Signal;HPM_P1;HPM_P2
2023/01/26 00:01:35;;;;;;;3.63;0.60;;;1.20;99.90;;;;;;5095463;28;20460;-81
2023/01/26 00:04:01;;;;;;;4.43;1.03;;;1.20;99.90;;;;;;5095375;28;20452;-80
2023/01/26 00:06:28;;;;;;;2.13;0.40;;;1.20;99.90;;;;;;5095239;28;20472;-81
2023/01/26 00:08:56;;;;;;;0.70;0.70;;;1.20;99.90;;;;;;5095319;28;20808;-81
2023/01/26 00:11:25;;;;;;;0.30;0.30;;;1.20;99.90;;;;;;5095320;28;20498;-81
2023/01/26 00:13:53;;;;;;;0.80;0.80;;;1.20;99.90;;;;;;5094960;28;20456;-82
2023/01/26 00:16:21;;;;;;;1.90;1.80;;;1.20;99.90;;;;;;5094259;28;20485;-82
2023/01/26 00:18:48;;;;;;;0.30;0.30;;;1.20;99.90;;;;;;5094740;28;20558;-82
2023/01/26 00:21:16;;;;;;;0.33;0.33;;;1.20;99.90;;;;;;5095110;28;20449;-81
2023/01/26 00:23:43;;;;;;;0.50;0.50;;;1.20;99.90;;;;;;5094742;28;20470;-81
2023/01/26 00:26:13;;;;;;;0.30;0.30;;;1.10;99.90;;;;;;5094892;28;20468;-82
2023/01/26 00:28:39;;;;;;;0.40;0.40;;;1.20;99.90;;;;;;5094918;28;20871;-82
2023/01/26 00:31:10;;;;;;;0.50;0.50;;;1.10;99.90;;;;;;5094804;28;20448;-82
2023/01/26 00:33:38;;;;;;;0.30;0.30;;;1.10;99.90;;;;;;5095209;28;20472;-82
2023/01/26 00:36:05;;;;;;;4.23;1.33;;;1.10;99.90;;;;;;5094583;28;20488;-81
2023/01/26 00:38:32;;;;;;;0.40;0.40;;;1.10;99.90;;;;;;5094354;28;20955;-82
2023/01/26 00:40:58;;;;;;;0.30;0.30;;;1.00;99.90;;;;;;5094582;28;20445;-82
2023/01/26 00:43:25;;;;;;;1.80;1.70;;;1.10;99.90;;;;;;5094556;28;20812;-82
2023/01/26 00:45:52;;;;;;;0.67;0.60;;;1.10;99.90;;;;;;5094410;28;20823;-82
2023/01/26 00:48:19;;;;;;;3.60;0.70;;;1.10;99.90;;;;;;5094547;28;20449;-82
2023/01/26 00:50:47;;;;;;;2.13;1.20;;;1.00;99.90;;;;;;5094499;28;20440;-82
2023/01/26 00:53:13;;;;;;;1.63;0.40;;;0.90;99.90;;;;;;5094074;28;20966;-82
2023/01/26 00:55:40;;;;;;;0.37;0.37;;;0.90;99.90;;;;;;5094251;28;20483;-82
2023/01/26 00:58:08;;;;;;;0.63;0.63;;;0.90;99.90;;;;;;5093980;28;20440;-82
2023/01/26 01:00:36;;;;;;;0.60;0.60;;;0.80;99.90;;;;;;5093952;28;20825;-82
2023/01/26 01:03:04;;;;;;;0.30;0.20;;;0.90;99.90;;;;;;5094235;28;20457;-82
2023/01/26 01:05:31;;;;;;;0.40;0.40;;;1.00;99.90;;;;;;5094165;28;20464;-82
2023/01/26 01:08:00;;;;;;;0.43;0.43;;;1.00;99.90;;;;;;5093868;28;20952;-82
2023/01/26 01:10:27;;;;;;;11.07;0.77;;;1.00;99.90;;;;;;5094076;28;20455;-82
2023/01/26 01:12:53;;;;;;;0.80;0.80;;;0.90;99.90;;;;;;5094051;28;20447;-82
2023/01/26 01:15:20;;;;;;;0.30;0.20;;;0.90;99.90;;;;;;5093408;28;20495;-81
2023/01/26 01:17:47;;;;;;;0.70;0.70;;;1.00;99.90;;;;;;5093888;28;20436;-81
2023/01/26 01:20:14;;;;;;;3.60;0.77;;;1.00;99.90;;;;;;5093672;28;20450;-81
2023/01/26 01:22:41;;;;;;;0.80;0.30;;;1.00;99.90;;;;;;5093963;28;20447;-82
2023/01/26 01:25:09;;;;;;;1.27;0.60;;;1.00;99.90;;;;;;5093767;28;20465;-81
2023/01/26 01:27:36;;;;;;;0.57;0.30;;;1.00;99.90;;;;;;5093767;28;20433;-82
2023/01/26 01:30:06;;;;;;;1.60;0.70;;;1.10;99.90;;;;;;5093746;28;20802;-81
2023/01/26 01:32:34;;;;;;;1.17;1.10;;;1.00;99.90;;;;;;5093668;28;20429;-82
2023/01/26 01:35:01;;;;;;;0.30;0.20;;;1.00;99.90;;;;;;5093566;28;20492;-81
2023/01/26 01:37:29;;;;;;;0.80;0.50;;;1.00;99.90;;;;;;5093651;28;20467;-82
2023/01/26 01:39:56;;;;;;;0.30;0.20;;;1.00;99.90;;;;;;5093606;28;20444;-82
2023/01/26 01:42:25;;;;;;;0.33;0.33;;;1.00;99.90;;;;;;5093548;28;20448;-82
2023/01/26 01:45:25;;;;;;;0.30;0.30;;;1.00;99.90;;;;;;5093660;28;20449;-81
2023/01/26 01:47:53;;;;;;;5.73;0.83;;;1.00;99.90;;;;;;5093550;28;20433;-82
2023/01/26 01:50:21;;;;;;;0.30;0.30;;;1.00;99.90;;;;;;5093156;28;20951;-82
2023/01/26 01:52:48;;;;;;;0.50;0.50;;;1.00;99.90;;;;;;5093151;28;20443;-82
2023/01/26 01:55:16;;;;;;;0.40;0.30;;;1.00;99.90;;;;;;5093254;28;20488;-82
2023/01/26 01:57:50;;;;;;;0.40;0.40;;;1.00;99.90;;;;;;5093410;28;20441;-82
2023/01/26 02:00:19;;;;;;;1.27;1.17;;;1.00;99.90;;;;;;5093498;28;20433;-82
2023/01/26 02:03:09;;;;;;;4.43;1.30;;;1.00;99.90;;;;;;5093430;28;20449;-81
2023/01/26 02:05:41;;;;;;;0.30;0.20;;;1.00;99.90;;;;;;5093311;28;20556;-81
2023/01/26 02:08:09;;;;;;;1.40;0.93;;;1.10;99.90;;;;;;5093411;28;20448;-82
2023/01/26 02:10:36;;;;;;;0.30;0.30;;;1.00;99.90;;;;;;5093887;28;20440;-82
2023/01/26 02:13:06;;;;;;;1.00;0.47;;;1.00;99.90;;;;;;5093358;28;20448;-81
2023/01/26 02:15:32;;;;;;;0.30;0.20;;;1.00;99.90;;;;;;5092760;28;20484;-82
2023/01/26 02:18:02;;;;;;;0.40;0.40;;;1.00;99.90;;;;;;5092936;28;20818;-82
2023/01/26 02:20:36;;;;;;;0.30;0.30;;;1.00;99.90;;;;;;5093296;28;20812;-82
2023/01/26 02:23:09;;;;;;;0.57;0.57;;;1.00;99.90;;;;;;5093314;28;20429;-82
2023/01/26 02:25:44;;;;;;;0.83;0.83;;;1.00;99.90;;;;;;5093136;28;20467;-82
2023/01/26 02:28:12;;;;;;;0.30;0.30;;;1.00;99.90;;;;;;5092873;28;20930;-81
2023/01/26 02:30:39;;;;;;;0.30;0.30;;;1.00;99.90;;;;;;5092800;28;20944;-82
2023/01/26 02:33:07;;;;;;;1.40;0.60;;;1.00;99.90;;;;;;5092843;28;20449;-82
2023/01/26 02:35:34;;;;;;;1.40;0.80;;;1.00;99.90;;;;;;5093571;28;20488;-82
2023/01/26 02:38:00;;;;;;;0.30;0.30;;;1.10;99.90;;;;;;5093077;28;20457;-82
2023/01/26 02:40:36;;;;;;;1.37;0.83;;;1.10;99.90;;;;;;5096636;28;20448;-82
2023/01/26 02:43:01;;;;;;;0.60;0.57;;;1.00;99.90;;;;;;5096910;28;20795;-81
2023/01/26 02:45:31;;;;;;;0.40;0.33;;;1.00;99.90;;;;;;5096524;28;20460;-81
2023/01/26 02:47:58;;;;;;;1.63;1.27;;;1.00;99.90;;;;;;5096566;28;20712;-81
2023/01/26 02:50:24;;;;;;;1.23;0.60;;;1.00;99.90;;;;;;5096490;28;20871;-82
2023/01/26 02:52:51;;;;;;;0.70;0.57;;;1.00;99.90;;;;;;5096769;28;20440;-81
2023/01/26 02:55:23;;;;;;;2.63;0.77;;;1.00;99.90;;;;;;5096585;28;20231;-82
2023/01/26 02:57:52;;;;;;;0.50;0.50;;;1.10;99.90;;;;;;5096732;28;20803;-82
2023/01/26 03:00:21;;;;;;;1.30;1.23;;;1.10;99.90;;;;;;5096625;28;20471;-81
2023/01/26 03:02:51;;;;;;;0.30;0.27;;;1.00;99.90;;;;;;5096213;28;20440;-81
2023/01/26 03:05:18;;;;;;;0.30;0.30;;;1.00;99.90;;;;;;5096481;28;20468;-81
2023/01/26 03:07:45;;;;;;;0.50;0.50;;;1.00;99.90;;;;;;5096488;28;20452;-81
2023/01/26 03:10:14;;;;;;;0.40;0.30;;;1.00;99.90;;;;;;5096377;28;20455;-81
2023/01/26 03:12:41;;;;;;;0.53;0.53;;;1.00;99.90;;;;;;5096283;28;20448;-81
2023/01/26 03:27:25;;;;;;;0.30;0.30;;;1.00;99.90;;;;;;5096082;28;20916;-81
2023/01/26 03:29:16;;;;;;;3.40;0.70;;;1.10;99.90;;;;;;5095704;28;20517;-82
2023/01/26 03:31:43;;;;;;;0.30;0.30;;;1.10;99.90;;;;;;5095975;28;20543;-82
2023/01/26 03:34:11;;;;;;;0.37;0.37;;;1.10;99.90;;;;;;5095877;28;20445;-81
2023/01/26 03:36:38;;;;;;;0.40;0.40;;;1.00;99.90;;;;;;5095759;28;20507;-81
2023/01/26 03:39:05;;;;;;;0.63;0.60;;;1.00;99.90;;;;;;5095498;28;20932;-82
2023/01/26 03:58:00;;;;;;;0.30;0.30;;;1.00;99.90;;;;;;5095266;28;20493;-82
2023/01/26 04:00:27;;;;;;;0.30;0.30;;;1.00;99.90;;;;;;5095503;28;20448;-81
2023/01/26 04:08:23;;;;;;;0.30;0.30;;;1.00;99.90;;;;;;5095407;28;20438;-81
2023/01/26 04:10:51;;;;;;;0.30;0.30;;;1.00;99.90;;;;;;5095370;28;20826;-81
2023/01/26 04:21:34;;;;;;;1.30;0.40;;;1.00;99.90;;;;;;5095079;28;20401;-82
2023/01/26 04:24:08;;;;;;;0.30;0.30;;;0.90;99.90;;;;;;5094672;28;20448;-81
2023/01/26 04:26:36;;;;;;;0.83;0.80;;;1.00;99.90;;;;;;5094981;28;20461;-81
2023/01/26 04:29:04;;;;;;;1.20;1.20;;;1.00;99.90;;;;;;5094588;28;20440;-81
2023/01/26 04:31:31;;;;;;;0.60;0.60;;;0.90;99.90;;;;;;5094841;28;20444;-82
2023/01/26 04:33:58;;;;;;;0.30;0.30;;;0.90;99.90;;;;;;5094809;28;20453;-81
2023/01/26 04:36:25;;;;;;;0.50;0.50;;;1.00;99.90;;;;;;5094378;28;20477;-81
2023/01/26 04:38:54;;;;;;;0.30;0.30;;;0.90;99.90;;;;;;5095467;28;20786;-81
2023/01/26 04:41:20;;;;;;;1.20;1.17;;;0.90;99.90;;;;;;5094296;28;20441;-81
2023/01/26 04:43:47;;;;;;;0.57;0.57;;;0.90;99.90;;;;;;5094256;28;20441;-81
2023/01/26 04:46:14;;;;;;;1.00;0.77;;;0.90;99.90;;;;;;5094436;28;20465;-81
2023/01/26 04:48:41;;;;;;;0.50;0.50;;;0.90;99.90;;;;;;5094571;28;20826;-81
2023/01/26 04:51:12;;;;;;;7.33;1.03;;;0.90;99.90;;;;;;5094205;28;20983;-82
2023/01/26 04:53:38;;;;;;;0.30;0.20;;;0.80;99.90;;;;;;5094180;28;20404;-81
2023/01/26 04:56:08;;;;;;;2.40;1.60;;;0.80;99.90;;;;;;5093993;28;20484;-81
2023/01/26 04:58:35;;;;;;;0.37;0.37;;;0.80;99.90;;;;;;5094094;28;21001;-81
2023/01/26 05:01:02;;;;;;;0.50;0.50;;;0.80;99.90;;;;;;5094224;28;20514;-81
2023/01/26 05:03:28;;;;;;;0.50;0.40;;;0.80;99.90;;;;;;5093741;28;20415;-81
2023/01/26 05:05:55;;;;;;;0.77;0.60;;;0.80;99.90;;;;;;5094143;28;20472;-82
2023/01/26 05:08:22;;;;;;;0.30;0.30;;;0.80;99.90;;;;;;5094155;28;20473;-82
2023/01/26 05:10:50;;;;;;;0.60;0.60;;;0.80;99.90;;;;;;5093802;28;20830;-81
2023/01/26 05:13:19;;;;;;;0.30;0.30;;;0.80;99.90;;;;;;5094055;28;20449;-81
2023/01/26 05:15:46;;;;;;;0.30;0.30;;;0.70;99.90;;;;;;5093451;28;20485;-81
2023/01/26 05:18:13;;;;;;;0.70;0.40;;;0.70;99.90;;;;;;5093900;28;20428;-82
2023/01/26 05:20:40;;;;;;;0.80;0.67;;;0.70;99.90;;;;;;5093611;28;20444;-82
2023/01/26 05:23:07;;;;;;;0.33;0.30;;;0.70;99.90;;;;;;5093939;28;20451;-82
2023/01/26 05:25:33;;;;;;;0.30;0.30;;;0.70;99.90;;;;;;5093841;28;20476;-80
2023/01/26 05:28:00;;;;;;;0.30;0.30;;;0.70;99.90;;;;;;5093563;28;20940;-80
2023/01/26 05:30:28;;;;;;;0.40;0.30;;;0.70;99.90;;;;;;5093870;28;20444;-80
2023/01/26 05:33:01;;;;;;;0.30;0.30;;;0.70;99.90;;;;;;5093870;28;20441;-80
2023/01/26 05:35:27;;;;;;;0.33;0.33;;;0.80;99.90;;;;;;5093747;28;20457;-80
2023/01/26 05:37:55;;;;;;;0.30;0.30;;;0.70;99.90;;;;;;5093617;28;20461;-79
2023/01/26 05:40:22;;;;;;;0.30;0.30;;;0.70;99.90;;;;;;5093424;28;20815;-80
2023/01/26 05:42:49;;;;;;;0.30;0.30;;;0.60;99.90;;;;;;5093657;28;20445;-80
2023/01/26 05:45:16;;;;;;;1.77;1.67;;;0.60;99.90;;;;;;5093588;28;20824;-80
2023/01/26 05:47:44;;;;;;;0.60;0.57;;;0.60;99.90;;;;;;5093263;28;20449;-79
2023/01/26 05:50:13;;;;;;;0.30;0.30;;;0.60;99.90;;;;;;5093410;28;20443;-80
2023/01/26 05:52:39;;;;;;;0.93;0.73;;;0.60;99.90;;;;;;5093649;28;20449;-80
2023/01/26 05:55:07;;;;;;;0.30;0.30;;;0.60;99.90;;;;;;5093488;28;20439;-80
2023/01/26 05:57:35;;;;;;;0.90;0.53;;;0.70;99.90;;;;;;5093455;28;20483;-80
2023/01/26 06:00:02;;;;;;;0.30;0.30;;;0.70;99.90;;;;;;5093217;28;20495;-80
2023/01/26 06:02:28;;;;;;;0.43;0.43;;;0.70;99.90;;;;;;5093429;28;20422;-82
2023/01/26 06:04:57;;;;;;;0.50;0.50;;;0.70;99.90;;;;;;5093043;28;20948;-82
2023/01/26 06:07:25;;;;;;;0.30;0.30;;;0.70;99.90;;;;;;5093356;28;20452;-82
2023/01/26 06:09:51;;;;;;;0.73;0.63;;;0.70;99.90;;;;;;5092993;28;20825;-82
2023/01/26 06:12:20;;;;;;;0.30;0.20;;;0.70;99.90;;;;;;5093374;28;20423;-82
2023/01/26 06:14:47;;;;;;;3.70;0.73;;;0.70;99.90;;;;;;5095645;28;20484;-82
2023/01/26 06:17:15;;;;;;;0.30;0.30;;;0.70;99.90;;;;;;5097281;28;20484;-82
2023/01/26 06:19:42;;;;;;;0.50;0.50;;;0.70;99.90;;;;;;5097359;28;20818;-82
2023/01/26 06:22:12;;;;;;;0.40;0.30;;;0.70;99.90;;;;;;5097384;28;20448;-82
2023/01/26 06:24:38;;;;;;;0.40;0.40;;;0.70;99.90;;;;;;5097262;28;20440;-82
2023/01/26 06:27:06;;;;;;;0.30;0.20;;;0.70;99.90;;;;;;5097291;28;20468;-82
2023/01/26 06:29:33;;;;;;;0.40;0.40;;;0.70;99.90;;;;;;5097211;28;20467;-82
2023/01/26 06:32:00;;;;;;;0.70;0.53;;;0.80;99.90;;;;;;5097163;28;20445;-82
2023/01/26 06:34:27;;;;;;;0.30;0.20;;;0.80;99.90;;;;;;5097125;28;20444;-82
2023/01/26 06:36:53;;;;;;;0.40;0.30;;;0.80;99.90;;;;;;5096985;28;20483;-82
2023/01/26 06:39:21;;;;;;;0.50;0.50;;;0.80;99.90;;;;;;5097027;28;20444;-82
2023/01/26 06:41:48;;;;;;;1.17;1.03;;;0.80;99.90;;;;;;5097036;28;20419;-82
2023/01/26 06:44:15;;;;;;;0.70;0.50;;;0.80;99.90;;;;;;5097018;28;20448;-82
2023/01/26 06:46:42;;;;;;;0.50;0.50;;;0.70;99.90;;;;;;5096847;28;20471;-82
2023/01/26 06:49:09;;;;;;;0.30;0.30;;;0.70;99.90;;;;;;5096940;28;20444;-82
2023/01/26 06:51:46;;;;;;;0.30;0.20;;;0.70;99.90;;;;;;5096814;28;20448;-82
2023/01/26 06:54:14;;;;;;;0.50;0.50;;;0.60;99.90;;;;;;5096763;28;20428;-82
2023/01/26 06:56:42;;;;;;;1.10;1.10;;;0.60;99.90;;;;;;5096505;28;20495;-82
2023/01/26 06:59:09;;;;;;;1.33;0.40;;;0.60;99.90;;;;;;5096643;28;20447;-82
2023/01/26 07:01:39;;;;;;;1.00;0.87;;;0.60;99.90;;;;;;5096597;28;20437;-82
2023/01/26 07:04:05;;;;;;;0.30;0.30;;;0.60;99.90;;;;;;5096537;28;20453;-82
2023/01/26 07:06:32;;;;;;;9.13;0.83;;;0.60;99.90;;;;;;5096478;28;20467;-82
2023/01/26 07:08:59;;;;;;;0.50;0.40;;;0.60;99.90;;;;;;5096434;28;20451;-82
2023/01/26 07:11:28;;;;;;;0.30;0.30;;;0.60;99.90;;;;;;5096118;28;20449;-82
2023/01/26 07:13:57;;;;;;;0.73;0.40;;;0.50;99.90;;;;;;5096052;28;20467;-82
2023/01/26 07:16:23;;;;;;;0.30;0.30;;;0.50;99.90;;;;;;5096296;28;20467;-82
2023/01/26 07:18:50;;;;;;;0.30;0.30;;;0.50;99.90;;;;;;5096194;28;20423;-82
2023/01/26 07:21:18;;;;;;;2.43;0.60;;;0.60;99.90;;;;;;5095942;28;20448;-82
2023/01/26 07:23:45;;;;;;;0.40;0.40;;;0.50;99.90;;;;;;5096227;28;20444;-81
2023/01/26 07:26:13;;;;;;;2.03;1.80;;;0.50;99.90;;;;;;5095601;28;20975;-82
2023/01/26 07:28:39;;;;;;;0.30;0.30;;;0.40;99.90;;;;;;5095760;28;20460;-82
2023/01/26 07:31:09;;;;;;;0.40;0.40;;;0.50;99.90;;;;;;5095733;28;20452;-82
2023/01/26 07:33:36;;;;;;;1.67;1.37;;;0.50;99.90;;;;;;5096039;28;20452;-82
2023/01/26 07:36:03;;;;;;;1.97;0.93;;;0.50;99.90;;;;;;5095893;28;20833;-82
2023/01/26 07:38:30;;;;;;;1.60;0.60;;;0.40;99.90;;;;;;5095835;28;20822;-82
2023/01/26 07:40:57;;;;;;;0.50;0.50;;;0.40;99.90;;;;;;5095561;28;20963;-82
2023/01/26 07:43:24;;;;;;;0.90;0.90;;;0.40;99.90;;;;;;5095802;28;20459;-82
2023/01/26 07:45:52;;;;;;;0.30;0.30;;;0.50;99.90;;;;;;5095372;28;20562;-82
2023/01/26 07:48:22;;;;;;;0.47;0.47;;;0.50;99.90;;;;;;5095840;28;20437;-82
2023/01/26 07:50:50;;;;;;;0.30;0.20;;;0.50;99.90;;;;;;5095749;28;20460;-82
2023/01/26 07:53:20;;;;;;;0.30;0.30;;;0.50;99.90;;;;;;5095695;28;20449;-82
2023/01/26 07:55:47;;;;;;;0.50;0.50;;;0.50;99.90;;;;;;5095538;28;20469;-82
2023/01/26 07:58:14;;;;;;;0.30;0.20;;;0.50;99.90;;;;;;5095454;28;20575;-82
2023/01/26 08:00:41;;;;;;;2.80;0.87;;;0.50;99.90;;;;;;5095509;28;20448;-82
2023/01/26 08:03:08;;;;;;;0.30;0.30;;;0.50;99.90;;;;;;5095414;28;20419;-82
2023/01/26 08:05:37;;;;;;;0.30;0.30;;;0.50;99.90;;;;;;5095080;28;20817;-82
2023/01/26 08:08:04;;;;;;;1.13;1.13;;;0.50;99.90;;;;;;5095292;28;20521;-82
2023/01/26 08:10:31;;;;;;;2.00;0.60;;;0.50;99.90;;;;;;5094980;28;20830;-82
2023/01/26 08:12:59;;;;;;;0.40;0.40;;;0.50;99.90;;;;;;5095264;28;20451;-82
2023/01/26 08:15:26;;;;;;;3.80;1.53;;;0.50;99.90;;;;;;5094586;28;20992;-82
2023/01/26 08:17:53;;;;;;;0.30;0.30;;;0.50;99.90;;;;;;5095078;28;20483;-82
2023/01/26 08:20:20;;;;;;;0.40;0.40;;;0.50;99.90;;;;;;5095069;28;20452;-82
2023/01/26 08:22:48;;;;;;;0.30;0.30;;;0.60;99.90;;;;;;5095075;28;20460;-82
2023/01/26 08:25:15;;;;;;;0.30;0.30;;;0.70;99.90;;;;;;5094898;28;20468;-82
2023/01/26 08:27:42;;;;;;;0.40;0.30;;;0.60;99.90;;;;;;5094913;28;20437;-82
2023/01/26 08:30:10;;;;;;;0.30;0.30;;;0.50;99.90;;;;;;5094848;28;20449;-82
2023/01/26 08:32:37;;;;;;;0.30;0.30;;;0.50;99.90;;;;;;5094863;28;20441;-82
2023/01/26 08:35:04;;;;;;;0.50;0.50;;;0.60;99.90;;;;;;5094799;28;20469;-82
2023/01/26 08:37:31;;;;;;;0.80;0.40;;;0.50;99.90;;;;;;5094048;28;20472;-82
2023/01/26 08:39:59;;;;;;;0.60;0.60;;;0.50;99.90;;;;;;5094710;28;20452;-82
2023/01/26 08:42:26;;;;;;;0.50;0.50;;;0.60;99.90;;;;;;5094381;28;20464;-82
2023/01/26 08:44:53;;;;;;;1.43;0.40;;;0.60;99.90;;;;;;5094242;28;20947;-82
2023/01/26 08:47:19;;;;;;;0.73;0.73;;;0.60;99.90;;;;;;5094528;28;20441;-82
2023/01/26 08:49:46;;;;;;;0.30;0.30;;;0.60;99.90;;;;;;5094568;28;20471;-82
2023/01/26 08:52:13;;;;;;;0.30;0.30;;;0.60;99.90;;;;;;5094356;28;20451;-82
2023/01/26 08:54:39;;;;;;;0.70;0.50;;;0.70;99.90;;;;;;5094304;28;20433;-82
2023/01/26 08:57:07;;;;;;;0.97;0.67;;;0.70;99.90;;;;;;5094226;28;20483;-82
2023/01/26 08:59:34;;;;;;;0.93;0.50;;;0.70;99.90;;;;;;5094031;28;20448;-82
2023/01/26 09:02:01;;;;;;;0.43;0.43;;;0.80;99.90;;;;;;5094254;28;20794;-82
2023/01/26 09:04:28;;;;;;;0.30;0.30;;;0.80;99.90;;;;;;5094161;28;20451;-82
2023/01/26 09:06:55;;;;;;;0.60;0.60;;;0.80;99.90;;;;;;5094106;28;20477;-82
2023/01/26 09:09:21;;;;;;;0.30;0.20;;;0.80;99.90;;;;;;5093763;28;20937;-82
2023/01/26 09:11:48;;;;;;;0.30;0.30;;;0.80;99.90;;;;;;5094124;28;20451;-82
2023/01/26 09:14:16;;;;;;;0.30;0.30;;;0.80;99.90;;;;;;5093783;28;20484;-82
2023/01/26 09:16:43;;;;;;;0.40;0.30;;;0.90;99.90;;;;;;5093861;28;20471;-83
2023/01/26 09:19:09;;;;;;;0.40;0.40;;;0.80;99.90;;;;;;5093839;28;20477;-83
2023/01/26 09:21:36;;;;;;;0.50;0.50;;;0.80;99.90;;;;;;5093967;28;20449;-83
2023/01/26 09:24:03;;;;;;;0.30;0.30;;;0.90;99.90;;;;;;5093998;28;20448;-83
2023/01/26 09:26:30;;;;;;;0.40;0.40;;;0.90;99.90;;;;;;5093784;28;20456;-83
2023/01/26 09:28:57;;;;;;;0.30;0.30;;;0.80;99.90;;;;;;5093790;28;20427;-83
2023/01/26 09:31:25;;;;;;;0.30;0.20;;;0.80;99.90;;;;;;5093720;28;20444;-83
2023/01/26 09:33:52;;;;;;;0.40;0.37;;;0.80;99.90;;;;;;5093744;28;20810;-83
2023/01/26 09:36:19;;;;;;;3.80;1.67;;;0.80;99.90;;;;;;5093349;28;20468;-83
2023/01/26 09:38:46;;;;;;;0.40;0.40;;;0.80;99.90;;;;;;5094135;28;20484;-83
2023/01/26 09:41:26;;;;;;;0.30;0.30;;;0.80;99.90;;;;;;5093648;28;20453;-83
2023/01/26 09:43:57;;;;;;;0.87;0.87;;;0.90;99.90;;;;;;5093672;28;20432;-83
2023/01/26 09:46:29;;;;;;;0.90;0.90;;;0.80;99.90;;;;;;5093219;28;20967;-83
2023/01/26 09:49:04;;;;;;;0.70;0.70;;;0.90;99.90;;;;;;5092656;28;20428;-83
2023/01/26 09:51:35;;;;;;;0.30;0.20;;;0.90;99.90;;;;;;5093561;28;20786;-83
2023/01/26 09:54:05;;;;;;;1.43;1.33;;;0.90;99.90;;;;;;5094298;28;20445;-83
2023/01/26 09:56:33;;;;;;;1.53;0.50;;;1.00;99.90;;;;;;5093418;28;20474;-83
2023/01/26 09:59:06;;;;;;;1.40;0.53;;;1.00;99.90;;;;;;5093067;28;21026;-83
2023/01/26 10:01:40;;;;;;;0.50;0.50;;;1.00;99.90;;;;;;5093446;28;20460;-83
2023/01/26 10:04:15;;;;;;;0.40;0.30;;;1.10;99.90;;;;;;5093436;28;20429;-83
2023/01/26 10:06:42;;;;;;;0.30;0.27;;;1.00;99.90;;;;;;5093345;28;20479;-83
2023/01/26 10:09:15;;;;;;;0.57;0.37;;;0.90;99.90;;;;;;5093353;28;20443;-83
2023/01/26 10:11:46;;;;;;;0.30;0.20;;;0.90;99.90;;;;;;5093347;28;20436;-83
2023/01/26 10:14:19;;;;;;;0.30;0.30;;;0.90;99.90;;;;;;5093096;28;20489;-83
2023/01/26 10:16:50;;;;;;;0.30;0.30;;;0.80;99.90;;;;;;5092885;28;20984;-83
2023/01/26 10:19:27;;;;;;;0.30;0.20;;;0.90;99.90;;;;;;5093238;28;20469;-83
2023/01/26 10:21:58;;;;;;;0.50;0.50;;;0.90;99.90;;;;;;5093321;28;20437;-83
2023/01/26 10:24:25;;;;;;;0.57;0.27;;;0.80;99.90;;;;;;5093327;28;20420;-82
2023/01/26 10:26:56;;;;;;;0.30;0.20;;;0.80;99.90;;;;;;5093195;28;20471;-83
2023/01/26 10:29:23;;;;;;;0.30;0.30;;;0.90;99.90;;;;;;5093210;28;20421;-83
2023/01/26 10:31:51;;;;;;;0.93;0.93;;;0.90;99.90;;;;;;5093164;28;20428;-83
2023/01/26 10:34:23;;;;;;;0.30;0.20;;;1.00;99.90;;;;;;5093089;28;20447;-82
2023/01/26 10:36:50;;;;;;;0.60;0.60;;;0.90;99.90;;;;;;5093061;28;20465;-83
2023/01/26 10:39:18;;;;;;;0.40;0.30;;;0.90;99.90;;;;;;5093022;28;20483;-83
2023/01/26 10:41:57;;;;;;;0.30;0.30;;;0.90;99.90;;;;;;5092714;28;20451;-82
2023/01/26 10:44:31;;;;;;;1.07;0.47;;;0.90;99.90;;;;;;5092737;28;20981;-82
2023/01/26 10:47:14;;;;;;;0.30;0.30;;;0.90;99.90;;;;;;5092946;28;20464;-82
2023/01/26 10:49:41;;;;;;;0.57;0.57;;;0.90;99.90;;;;;;5092991;28;20428;-82
2023/01/26 10:52:16;;;;;;;0.30;0.20;;;0.90;99.90;;;;;;5092943;28;20448;-82
2023/01/26 10:54:43;;;;;;;0.30;0.30;;;0.90;99.90;;;;;;5092581;28;20927;-82
2023/01/26 10:57:26;;;;;;;0.40;0.30;;;1.00;99.90;;;;;;5092868;28;20543;-82
2023/01/26 10:59:56;;;;;;;0.70;0.40;;;1.00;99.90;;;;;;5094472;28;20427;-82
2023/01/26 11:02:27;;;;;;;0.30;0.30;;;1.00;99.90;;;;;;5096289;28;20447;-82
2023/01/26 11:05:28;;;;;;;0.30;0.30;;;1.00;99.90;;;;;;5096115;28;20452;-82
2023/01/26 11:07:59;;;;;;;0.30;0.30;;;1.00;99.90;;;;;;5080799;28;20459;-82
2023/01/26 11:10:30;;;;;;;0.30;0.30;;;0.90;99.90;;;;;;5096444;28;20437;-82
2023/01/26 11:13:08;;;;;;;0.30;0.30;;;0.90;99.90;;;;;;5096428;28;20459;-82
2023/01/26 11:15:38;;;;;;;0.30;0.20;;;1.00;99.90;;;;;;5095892;28;20483;-82
2023/01/26 11:18:18;;;;;;;0.33;0.30;;;1.00;99.90;;;;;;5096187;28;20529;-82
2023/01/26 11:20:53;;;;;;;1.07;0.50;;;0.90;99.90;;;;;;5096338;28;20436;-82
2023/01/26 11:23:32;;;;;;;0.43;0.43;;;0.80;99.90;;;;;;5096360;28;20432;-82
2023/01/26 11:26:20;;;;;;;0.30;0.20;;;0.80;99.90;;;;;;5096196;28;20475;-82
2023/01/26 11:29:02;;;;;;;0.53;0.50;;;0.80;99.90;;;;;;5096142;28;20425;-82
2023/01/26 11:31:42;;;;;;;0.50;0.50;;;0.70;99.90;;;;;;5095768;28;20908;-82
2023/01/26 11:34:24;;;;;;;0.60;0.60;;;0.70;99.90;;;;;;5096034;28;20429;-82
2023/01/26 11:36:59;;;;;;;0.30;0.30;;;0.70;99.90;;;;;;5095914;28;20461;-83
2023/01/26 11:39:34;;;;;;;0.30;0.20;;;0.70;99.90;;;;;;5095890;28;20456;-82
2023/01/26 11:42:20;;;;;;;0.30;0.20;;;0.70;99.90;;;;;;5095888;28;20428;-82
2023/01/26 11:45:08;;;;;;;0.97;0.97;;;0.70;99.90;;;;;;5095724;28;20435;-82
2023/01/26 11:47:51;;;;;;;0.40;0.40;;;0.60;99.90;;;;;;5095716;28;20456;-82
2023/01/26 11:50:33;;;;;;;1.20;0.50;;;0.60;99.90;;;;;;5095420;28;20777;-82
2023/01/26 11:53:22;;;;;;;0.67;0.47;;;0.60;99.90;;;;;;5095616;28;20429;-82
2023/01/26 11:55:58;;;;;;;1.57;0.57;;;0.50;99.90;;;;;;5095920;28;20476;-82
2023/01/26 11:58:32;;;;;;;0.50;0.30;;;0.50;99.90;;;;;;5095510;28;20468;-82
2023/01/26 12:01:01;;;;;;;0.30;0.30;;;0.60;99.90;;;;;;5095211;28;20909;-82
2023/01/26 12:03:35;;;;;;;0.30;0.30;;;0.60;99.90;;;;;;5095396;28;20456;-82
2023/01/26 12:06:07;;;;;;;0.60;0.40;;;0.50;99.90;;;;;;5095355;28;20837;-82
2023/01/26 12:08:39;;;;;;;0.30;0.20;;;0.50;99.90;;;;;;5095333;28;20429;-82
2023/01/26 12:11:24;;;;;;;0.33;0.30;;;0.50;99.90;;;;;;5094555;28;20504;-82
2023/01/26 12:13:59;;;;;;;0.30;0.30;;;0.50;99.90;;;;;;5095210;28;20598;-82
2023/01/26 12:16:36;;;;;;;0.60;0.50;;;0.40;99.90;;;;;;5095141;28;20468;-82
2023/01/26 12:19:11;;;;;;;0.40;0.40;;;0.30;99.90;;;;;;5094797;28;20520;-82
2023/01/26 12:21:43;;;;;;;1.43;0.53;;;0.40;99.90;;;;;;5095163;28;20424;-80
2023/01/26 12:24:16;;;;;;;0.30;0.30;;;0.40;99.90;;;;;;5095035;28;20421;-79
2023/01/26 12:26:47;;;;;;;0.30;0.20;;;0.40;99.90;;;;;;5094924;28;20802;-79
2023/01/26 12:29:18;;;;;;;1.17;1.00;;;0.40;99.90;;;;;;5094880;28;20453;-79
2023/01/26 12:31:49;;;;;;;0.30;0.20;;;0.40;99.90;;;;;;5094875;28;20433;-79
2023/01/26 12:34:16;;;;;;;0.30;0.20;;;0.40;99.90;;;;;;5094819;28;20447;-79
2023/01/26 12:36:51;;;;;;;0.60;0.47;;;0.40;99.90;;;;;;5094639;28;20464;-79
2023/01/26 12:39:28;;;;;;;0.30;0.30;;;0.50;99.90;;;;;;5094466;28;20886;-79
2023/01/26 12:42:14;;;;;;;0.30;0.30;;;0.50;99.90;;;;;;5094693;28;20436;-81
2023/01/26 12:44:43;;;;;;;0.53;0.53;;;0.50;99.90;;;;;;5094636;28;20429;-83
2023/01/26 12:47:16;;;;;;;4.80;1.00;;;0.50;99.90;;;;;;5094283;28;20440;-77
2023/01/26 12:49:50;;;;;;;0.50;0.40;;;0.60;99.90;;;;;;5094532;28;20435;-79
2023/01/26 12:52:23;;;;;;;0.40;0.30;;;0.60;99.90;;;;;;5094497;28;20437;-78
2023/01/26 12:54:57;;;;;;;0.67;0.40;;;0.50;99.90;;;;;;5094365;28;20440;-80
2023/01/26 12:57:29;;;;;;;0.30;0.30;;;0.40;99.90;;;;;;5094056;28;20429;-79
2023/01/26 13:00:07;;;;;;;0.30;0.30;;;0.40;99.90;;;;;;5094302;28;20461;-79
2023/01/26 13:02:36;;;;;;;0.30;0.30;;;0.40;99.90;;;;;;5093957;28;20966;-79
2023/01/26 13:05:06;;;;;;;2.50;0.40;;;0.40;99.90;;;;;;5094129;28;20472;-79
2023/01/26 13:07:36;;;;;;;0.40;0.40;;;0.40;99.90;;;;;;5094183;28;20502;-79
2023/01/26 13:10:24;;;;;;;2.07;0.57;;;0.40;99.90;;;;;;5094144;28;20425;-79
2023/01/26 13:12:52;;;;;;;4.23;0.70;;;0.40;99.90;;;;;;5093764;28;20440;-79
2023/01/26 13:15:21;;;;;;;0.80;0.47;;;0.40;99.90;;;;;;5093515;28;20479;-79
2023/01/26 13:17:50;;;;;;;0.57;0.57;;;0.40;99.90;;;;;;5094062;28;20444;-79
2023/01/26 13:20:43;;;;;;;0.30;0.30;;;0.30;99.90;;;;;;5093890;28;20480;-79
2023/01/26 13:23:49;;;;;;;0.30;0.30;;;0.30;99.90;;;;;;5093833;28;20420;-79
2023/01/26 13:26:24;;;;;;;0.30;0.30;;;0.30;99.90;;;;;;5093832;28;20468;-79
2023/01/26 13:28:53;;;;;;;0.37;0.33;;;0.30;99.90;;;;;;5093875;28;20425;-79
2023/01/26 13:31:31;;;;;;;0.30;0.30;;;0.30;99.90;;;;;;5093747;28;20495;-79
2023/01/26 13:34:01;;;;;;;0.30;0.27;;;0.20;99.90;;;;;;5093780;28;20455;-79
2023/01/26 13:36:32;;;;;;;0.60;0.60;;;0.20;99.90;;;;;;5093675;28;20465;-79
2023/01/26 13:39:03;;;;;;;0.30;0.30;;;0.20;99.90;;;;;;5093659;28;20469;-80
2023/01/26 13:41:31;;;;;;;0.40;0.30;;;0.30;99.90;;;;;;5093638;28;20440;-79
2023/01/26 13:44:05;;;;;;;0.30;0.30;;;0.30;99.90;;;;;;5093610;28;20444;-79
2023/01/26 13:46:37;;;;;;;0.30;0.20;;;0.20;99.90;;;;;;5093526;28;20471;-79
2023/01/26 13:49:04;;;;;;;0.33;0.30;;;0.20;99.90;;;;;;5093541;28;20420;-79
2023/01/26 13:51:34;;;;;;;0.30;0.30;;;0.10;99.90;;;;;;5093190;28;20456;-79
2023/01/26 13:54:03;;;;;;;0.30;0.30;;;0.10;99.90;;;;;;5093425;28;20455;-79